Time;durP1;ratioP1;P1;durP2;ratioP2;P2;SDS_P1;SDS_P2;PMS_P1;PMS_P2;Temp;Humidity;BMP_temperature;BMP_pressure;BME280_temperature;BME280_humidity;BME280_pressure;Samples;Min_cycle;Max_cycle;Signal;HPM_P1;HPM_P2
2023/10/17 00:00:31;;;;;;;;;;;;;;;4.03;83.26;101599.48;105685;1259;62109;-76
2023/10/17 00:03:18;;;;;;;;;;;;;;;4.03;83.16;101600.16;105654;1259;75691;-76
2023/10/17 00:05:45;;;;;;;;;;;;;;;4.02;83.42;101597.47;105768;1260;64206;-76
2023/10/17 00:08:13;;;;;;;;;;;;;;;4.02;83.27;101599.23;105572;1260;125068;-77
2023/10/17 00:10:45;;;;;;;;;;;;;;;4.01;83.25;101596.73;105819;1260;60402;-76
2023/10/17 00:13:31;;;;;;;;;;;;;;;4.00;83.26;101595.80;105586;1260;125744;-76
2023/10/17 00:15:59;;;;;;;;;;;;;;;3.99;83.38;101592.08;105672;1259;74768;-77
2023/10/17 00:18:26;;;;;;;;;;;;;;;3.99;83.36;101593.11;105701;1260;65594;-76
2023/10/17 00:20:53;;;;;;;;;;;;;;;4.00;83.55;101595.80;105621;1257;125151;-76
2023/10/17 00:23:22;;;;;;;;;;;;;;;4.01;83.50;101594.45;105816;1261;62026;-77
2023/10/17 00:25:49;;;;;;;;;;;;;;;4.00;83.50;101594.45;105617;1260;125256;-76
2023/10/17 00:28:20;;;;;;;;;;;;;;;4.00;83.58;101596.86;105732;1262;75457;-76
2023/10/17 00:30:48;;;;;;;;;;;;;;;4.00;83.38;101595.30;105750;1261;125169;-76
2023/10/17 00:33:20;;;;;;;;;;;;;;;4.00;83.54;101594.42;105655;1260;71406;-76
2023/10/17 00:35:47;;;;;;;;;;;;;;;4.00;83.36;101596.52;105773;1261;62159;-76
2023/10/17 00:38:15;;;;;;;;;;;;;;;4.00;83.33;101595.24;105644;1259;124932;-79
2023/10/17 00:43:11;;;;;;;;;;;;;;;3.99;83.39;101601.96;105749;1260;126139;-78
2023/10/17 00:45:38;;;;;;;;;;;;;;;3.97;83.27;101596.63;105685;1260;71956;-81
2023/10/17 00:48:08;;;;;;;;;;;;;;;3.96;83.27;101596.92;105690;1258;62173;-79
2023/10/17 00:50:35;;;;;;;;;;;;;;;3.95;83.39;101597.39;105518;1260;125201;-78
2023/10/17 00:53:02;;;;;;;;;;;;;;;3.94;83.46;101600.95;105700;1261;75967;-78
2023/10/17 00:55:29;;;;;;;;;;;;;;;3.94;83.51;101603.35;105527;1265;125950;-79
2023/10/17 00:57:56;;;;;;;;;;;;;;;3.92;83.41;101605.20;105820;1262;73241;-79
2023/10/17 01:02:51;;;;;;;;;;;;;;;3.90;83.39;101602.97;105673;1263;124970;-79
2023/10/17 01:05:18;;;;;;;;;;;;;;;3.89;83.37;101607.41;108584;1260;74230;-80
2023/10/17 01:07:44;;;;;;;;;;;;;;;3.87;83.38;101602.96;105649;1260;125623;-80
2023/10/17 01:10:14;;;;;;;;;;;;;;;3.86;83.29;101603.39;105892;1262;62086;-80
2023/10/17 01:12:50;;;;;;;;;;;;;;;3.85;83.38;101603.49;105810;1260;61934;-80
2023/10/17 01:15:24;;;;;;;;;;;;;;;3.84;83.36;101603.59;105759;1263;62104;-79
2023/10/17 01:17:54;;;;;;;;;;;;;;;3.82;83.31;101599.98;105867;1258;75433;-79
2023/10/17 01:20:21;;;;;;;;;;;;;;;3.80;83.44;101597.96;105840;1262;124766;-80
2023/10/17 01:22:48;;;;;;;;;;;;;;;3.79;83.49;101595.66;105785;1260;71359;-80
2023/10/17 01:25:57;;;;;;;;;;;;;;;3.78;83.33;101595.94;105621;1261;124937;-79
2023/10/17 01:28:06;;;;;;;;;;;;;;;3.78;83.37;101595.38;105679;1259;62096;-79
2023/10/17 01:30:33;;;;;;;;;;;;;;;3.76;83.44;101600.66;105767;1262;75877;-80
2023/10/17 01:33:00;;;;;;;;;;;;;;;3.75;83.63;101600.26;105660;1260;124812;-80
2023/10/17 01:35:26;;;;;;;;;;;;;;;3.75;83.35;101599.86;105717;1259;72702;-80
2023/10/17 01:37:55;;;;;;;;;;;;;;;3.75;83.59;101598.29;105634;1259;124803;-79
2023/10/17 01:40:27;;;;;;;;;;;;;;;3.74;83.70;101602.56;105791;1258;62149;-79
2023/10/17 01:42:56;;;;;;;;;;;;;;;3.73;83.53;101605.85;105676;1259;125527;-79
2023/10/17 01:45:25;;;;;;;;;;;;;;;3.73;83.62;101608.25;108531;1260;65107;-80
2023/10/17 01:47:52;;;;;;;;;;;;;;;3.73;83.46;101607.17;105751;1262;72655;-80
2023/10/17 01:50:19;;;;;;;;;;;;;;;3.71;83.46;101608.81;105609;1258;125224;-79
2023/10/17 01:52:46;;;;;;;;;;;;;;;3.68;83.44;101610.02;105658;1262;62061;-79
2023/10/17 01:55:16;;;;;;;;;;;;;;;3.67;83.33;101612.94;105655;1259;125319;-79
2023/10/17 01:57:46;;;;;;;;;;;;;;;3.66;83.45;101614.92;105683;1257;64827;-79
2023/10/17 02:02:58;;;;;;;;;;;;;;;3.64;83.54;101616.52;105585;1262;124740;-79
2023/10/17 02:05:25;;;;;;;;;;;;;;;3.61;83.41;101618.91;105648;1260;62136;-78
2023/10/17 02:07:52;;;;;;;;;;;;;;;3.59;83.48;101616.86;105636;1258;125100;-79
2023/10/17 02:10:21;;;;;;;;;;;;;;;3.58;83.46;101620.45;105708;1262;64157;-79
2023/10/17 02:12:48;;;;;;;;;;;;;;;3.57;83.52;101619.33;108697;1259;125378;-77
2023/10/17 02:15:23;;;;;;;;;;;;;;;3.56;83.48;101619.58;108912;1260;59841;-77
2023/10/17 02:17:53;;;;;;;;;;;;;;;3.54;83.50;101620.20;106498;1262;62514;-81
2023/10/17 02:20:34;;;;;;;;;;;;;;;3.53;83.43;101623.79;105607;1263;125150;-80
2023/10/17 02:23:19;;;;;;;;;;;;;;;3.53;83.53;101620.10;105845;1260;64785;-80
2023/10/17 02:25:46;;;;;;;;;;;;;;;3.51;83.51;101618.28;106091;1262;125125;-79
2023/10/17 02:28:13;;;;;;;;;;;;;;;3.50;83.44;101615.62;105725;1260;62189;-80
2023/10/17 02:30:39;;;;;;;;;;;;;;;3.50;83.48;101619.91;105687;1262;61993;-79
2023/10/17 02:33:17;;;;;;;;;;;;;;;3.49;83.57;101617.75;105603;1260;124627;-78
2023/10/17 02:35:57;;;;;;;;;;;;;;;3.47;83.46;101619.57;105716;1260;66083;-79
2023/10/17 02:38:24;;;;;;;;;;;;;;;3.46;83.41;101619.11;105691;1260;124946;-82
2023/10/17 02:40:53;;;;;;;;;;;;;;;3.44;83.55;101622.16;105711;1260;62075;-79
2023/10/17 02:43:19;;;;;;;;;;;;;;;3.42;83.42;101618.89;105615;1262;124990;-79
2023/10/17 02:45:46;;;;;;;;;;;;;;;3.41;83.55;101622.43;105749;1260;74409;-79
2023/10/17 02:48:26;;;;;;;;;;;;;;;3.39;83.48;101624.56;105656;1263;66950;-80
2023/10/17 02:50:58;;;;;;;;;;;;;;;3.37;83.49;101627.20;105712;1262;125003;-80
2023/10/17 02:53:26;;;;;;;;;;;;;;;3.36;83.65;101630.05;105935;1262;62053;-83
2023/10/17 02:55:53;;;;;;;;;;;;;;;3.35;83.76;101630.19;106349;1260;124821;-83
2023/10/17 02:58:20;;;;;;;;;;;;;;;3.36;83.83;101634.89;106410;1258;74217;-83
2023/10/17 03:00:50;;;;;;;;;;;;;;;3.35;83.79;101636.07;106482;1261;66295;-82
2023/10/17 03:03:19;;;;;;;;;;;;;;;3.35;84.01;101636.08;106442;1263;71375;-83
2023/10/17 03:05:50;;;;;;;;;;;;;;;3.35;83.88;101639.55;106375;1262;61902;-84
2023/10/17 03:08:17;;;;;;;;;;;;;;;3.35;83.95;101636.42;106369;1258;124936;-85
2023/10/17 03:10:44;;;;;;;;;;;;;;;3.35;83.97;101635.70;106466;1259;75504;-85
2023/10/17 03:13:23;;;;;;;;;;;;;;;3.34;83.91;101636.89;106355;1260;125860;-85
2023/10/17 03:15:53;;;;;;;;;;;;;;;3.34;83.83;101639.30;106509;1262;72731;-84
2023/10/17 03:18:20;;;;;;;;;;;;;;;3.33;83.88;101643.41;106374;1262;62064;-84
2023/10/17 03:20:53;;;;;;;;;;;;;;;3.33;83.93;101639.93;106327;1262;125177;-83
2023/10/17 03:23:20;;;;;;;;;;;;;;;3.33;83.85;101642.02;106365;1260;73780;-82
2023/10/17 03:25:47;;;;;;;;;;;;;;;3.33;83.88;101643.02;106066;1262;124795;-84
2023/10/17 03:28:15;;;;;;;;;;;;;;;3.32;83.89;101645.23;106487;1262;72707;-85
2023/10/17 03:30:48;;;;;;;;;;;;;;;3.31;83.80;101643.13;106511;1261;61916;-80
2023/10/17 03:33:19;;;;;;;;;;;;;;;3.32;84.07;101644.73;105804;1260;125610;-79
2023/10/17 03:35:56;;;;;;;;;;;;;;;3.31;84.06;101644.84;105852;1263;74218;-79
2023/10/17 03:38:26;;;;;;;;;;;;;;;3.32;84.09;101647.14;105716;1259;124781;-79
2023/10/17 03:40:54;;;;;;;;;;;;;;;3.32;84.12;101645.23;105702;1264;71095;-79
2023/10/17 03:43:28;;;;;;;;;;;;;;;3.31;84.13;101644.50;105682;1259;125071;-80
2023/10/17 03:46:03;;;;;;;;;;;;;;;3.31;84.16;101642.42;105672;1264;62170;-80
2023/10/17 03:48:36;;;;;;;;;;;;;;;3.30;84.22;101638.70;105698;1260;74496;-83
2023/10/17 03:53:42;;;;;;;;;;;;;;;3.29;84.36;101647.48;106281;1259;72027;-81
2023/10/17 03:56:11;;;;;;;;;;;;;;;3.28;84.20;101647.45;106391;1263;125431;-81
2023/10/17 04:01:28;;;;;;;;;;;;;;;3.28;84.38;101644.98;106343;1263;126082;-81
2023/10/17 04:03:55;;;;;;;;;;;;;;;3.29;84.26;101647.13;106130;1265;66321;-81
2023/10/17 04:06:57;;;;;;;;;;;;;;;3.29;84.39;101652.33;106290;1261;71818;-81
2023/10/17 04:11:44;;;;;;;;;;;;;;;3.28;84.23;101655.40;106401;1259;62012;-81
2023/10/17 04:14:11;;;;;;;;;;;;;;;3.28;84.20;101653.48;106344;1263;125977;-80
2023/10/17 04:16:43;;;;;;;;;;;;;;;3.28;84.38;101654.73;106459;1262;66002;-79
2023/10/17 04:19:20;;;;;;;;;;;;;;;3.28;84.36;101652.77;106304;1260;125202;-80
2023/10/17 04:22:01;;;;;;;;;;;;;;;3.28;84.25;101651.44;106426;1260;62120;-80
2023/10/17 04:24:38;;;;;;;;;;;;;;;3.28;84.37;101652.30;106386;1263;62153;-80
2023/10/17 04:29:44;;;;;;;;;;;;;;;3.28;84.33;101655.08;105758;1265;66354;-79
2023/10/17 04:32:14;;;;;;;;;;;;;;;3.29;84.44;101661.03;105768;1260;124847;-80
2023/10/17 04:34:46;;;;;;;;;;;;;;;3.30;84.36;101662.84;105867;1263;62055;-80
2023/10/17 04:37:24;;;;;;;;;;;;;;;3.32;84.49;101664.54;106334;1263;124943;-80
2023/10/17 04:40:20;;;;;;;;;;;;;;;3.33;84.47;101659.71;105754;1265;74227;-80
2023/10/17 04:45:20;;;;;;;;;;;;;;;3.35;84.36;101657.55;107243;1263;71412;-79
2023/10/17 04:47:46;;;;;;;;;;;;;;;3.34;84.46;101655.27;105748;1260;62086;-80
2023/10/17 04:50:13;;;;;;;;;;;;;;;3.34;84.53;101659.83;105809;1263;124832;-82
2023/10/17 04:52:46;;;;;;;;;;;;;;;3.34;84.43;101658.60;106537;1262;75625;-81
2023/10/17 04:58:30;;;;;;;;;;;;;;;3.36;84.39;101662.18;106376;1263;72729;-81
2023/10/17 05:03:14;;;;;;;;;;;;;;;3.39;84.47;101671.58;106559;1263;125349;-81
2023/10/17 05:06:00;;;;;;;;;;;;;;;3.39;84.44;101677.13;106723;1260;75454;-78
2023/10/17 05:08:33;;;;;;;;;;;;;;;3.39;84.21;101678.68;105908;1263;125582;-78
2023/10/17 06:17:22;;;;;;;;;;;;;;;4.49;84.24;101716.77;106032;1261;65530;-79
2023/10/17 06:19:49;;;;;;;;;;;;;;;4.56;84.20;101721.52;105865;1262;125496;-79
2023/10/17 06:30:29;;;;;;;;;;;;;;;4.84;84.22;101728.38;105845;1263;63699;-79
2023/10/17 06:35:52;;;;;;;;;;;;;;;5.03;84.20;101726.48;105749;1262;62168;-79
2023/10/17 06:38:19;;;;;;;;;;;;;;;5.21;84.57;101725.51;105674;1259;125158;-79
2023/10/17 06:40:46;;;;;;;;;;;;;;;5.45;84.89;101728.38;105675;1261;75499;-79
2023/10/17 06:43:14;;;;;;;;;;;;;;;5.79;85.35;101722.42;105769;1263;125201;-79
2023/10/17 06:45:53;;;;;;;;;;;;;;;6.14;85.43;101723.11;105707;1263;71248;-80
2023/10/17 06:48:31;;;;;;;;;;;;;;;6.44;85.24;101721.36;105740;1262;62086;-79
2023/10/17 06:53:48;;;;;;;;;;;;;;;6.91;84.68;101718.05;106158;1260;75657;-79
2023/10/17 06:56:16;;;;;;;;;;;;;;;7.06;84.27;101718.88;105724;1263;125191;-79
2023/10/17 06:58:44;;;;;;;;;;;;;;;7.20;84.07;101726.96;105841;1259;71481;-79
2023/10/17 07:01:19;;;;;;;;;;;;;;;7.35;83.88;101727.08;105817;1261;125817;-80
2023/10/17 07:03:46;;;;;;;;;;;;;;;7.52;83.74;101727.45;105902;1261;62156;-81
2023/10/17 07:06:12;;;;;;;;;;;;;;;7.70;83.63;101728.92;105856;1263;75494;-79
2023/10/17 07:08:40;;;;;;;;;;;;;;;7.88;83.51;101725.63;105796;1263;124658;-78
2023/10/17 07:11:10;;;;;;;;;;;;;;;8.00;83.26;101731.33;105882;1260;72132;-79
2023/10/17 07:13:59;;;;;;;;;;;;;;;8.11;83.10;101734.70;105812;1261;124637;-79
2023/10/17 07:16:26;;;;;;;;;;;;;;;8.28;82.93;101729.78;105823;1260;62216;-78
2023/10/17 07:18:53;;;;;;;;;;;;;;;8.43;82.84;101726.69;105815;1259;75733;-78
2023/10/17 07:21:24;;;;;;;;;;;;;;;8.54;82.52;101724.48;105761;1260;124095;-81
2023/10/17 07:23:54;;;;;;;;;;;;;;;8.60;82.10;101725.44;105814;1261;72837;-77
2023/10/17 07:26:38;;;;;;;;;;;;;;;8.55;81.68;101725.56;105749;1263;124332;-79
2023/10/17 07:29:05;;;;;;;;;;;;;;;8.45;81.29;101723.63;105806;1261;62008;-79
2023/10/17 07:31:32;;;;;;;;;;;;;;;8.33;81.10;101722.52;105947;1260;125516;-79
2023/10/17 07:36:38;;;;;;;;;;;;;;;8.11;80.82;101729.45;105761;1260;71397;-79
2023/10/17 07:39:29;;;;;;;;;;;;;;;8.03;80.80;101727.85;105676;1259;124240;-79
2023/10/17 07:41:54;;;;;;;;;;;;;;;7.98;80.87;101728.11;105792;1261;63434;-79
2023/10/17 07:44:29;;;;;;;;;;;;;;;7.98;81.01;101727.58;105837;1264;124820;-79
2023/10/17 07:47:09;;;;;;;;;;;;;;;7.99;81.21;101725.71;105811;1260;66261;-79
2023/10/17 07:49:41;;;;;;;;;;;;;;;8.01;81.25;101723.85;105669;1260;125115;-79
2023/10/17 07:52:12;;;;;;;;;;;;;;;8.02;81.18;101721.66;105776;1263;62065;-79
2023/10/17 07:54:45;;;;;;;;;;;;;;;8.03;81.15;101721.02;105885;1260;62060;-78
2023/10/17 07:57:17;;;;;;;;;;;;;;;8.07;81.38;101722.78;105751;1261;124979;-79
2023/10/17 07:59:51;;;;;;;;;;;;;;;8.11;81.41;101724.40;105886;1260;65607;-79
2023/10/17 08:02:20;;;;;;;;;;;;;;;8.17;81.39;101724.52;105715;1262;125019;-79
2023/10/17 08:04:48;;;;;;;;;;;;;;;8.24;81.44;101724.49;105846;1260;62555;-79
2023/10/17 08:07:16;;;;;;;;;;;;;;;8.32;81.54;101721.02;108840;1258;125473;-77
2023/10/17 08:09:56;;;;;;;;;;;;;;;8.40;81.66;101718.67;108202;1259;74419;-80
2023/10/17 08:12:23;;;;;;;;;;;;;;;8.49;81.66;101717.55;105919;1262;66189;-78
2023/10/17 08:14:58;;;;;;;;;;;;;;;8.56;81.44;101718.05;105729;1264;125509;-78
2023/10/17 08:17:27;;;;;;;;;;;;;;;8.62;81.24;101713.45;105885;1262;62411;-77
2023/10/17 08:23:06;;;;;;;;;;;;;;;8.75;81.18;101707.61;105492;1261;75489;-78
2023/10/17 08:25:31;;;;;;;;;;;;;;;8.80;80.98;101706.61;105533;1263;125524;-78
2023/10/17 08:27:58;;;;;;;;;;;;;;;8.85;80.93;101700.38;107972;1259;72516;-76
2023/10/17 08:30:26;;;;;;;;;;;;;;;8.91;80.91;101703.47;105697;1260;61969;-77
2023/10/17 08:35:37;;;;;;;;;;;;;;;9.06;80.74;101707.48;105820;1262;75604;-77
2023/10/17 08:38:06;;;;;;;;;;;;;;;9.12;80.64;101710.05;105576;1259;124998;-77
2023/10/17 08:40:40;;;;;;;;;;;;;;;9.19;80.41;101715.80;108916;1258;72811;-78
2023/10/17 08:43:10;;;;;;;;;;;;;;;9.26;80.43;101717.14;106019;1259;125349;-77
2023/10/17 08:45:38;;;;;;;;;;;;;;;9.32;80.35;101721.13;108902;1258;59846;-77
2023/10/17 08:48:06;;;;;;;;;;;;;;;9.38;80.23;101719.29;107672;1259;75191;-78
2023/10/17 08:50:39;;;;;;;;;;;;;;;9.45;80.19;101723.62;107369;1259;124946;-78
2023/10/17 08:53:09;;;;;;;;;;;;;;;9.53;80.16;101716.63;105736;1262;72395;-77
2023/10/17 08:55:40;;;;;;;;;;;;;;;9.60;80.01;101716.91;105586;1259;125496;-77
2023/10/17 08:58:09;;;;;;;;;;;;;;;9.64;79.78;101719.05;105719;1259;62048;-78
2023/10/17 09:03:23;;;;;;;;;;;;;;;9.71;79.55;101712.48;105723;1260;125450;-77
2023/10/17 09:11:30;;;;;;;;;;;;;;;9.89;79.28;101714.86;105762;1260;62079;-77
2023/10/17 09:17:10;;;;;;;;;;;;;;;10.04;78.90;101714.10;108114;1259;64960;-76
2023/10/17 09:19:45;;;;;;;;;;;;;;;10.12;78.70;101713.02;105774;1260;173174;-77
2023/10/17 09:22:15;;;;;;;;;;;;;;;10.16;78.45;101711.98;105826;1260;60364;-76
2023/10/17 09:24:45;;;;;;;;;;;;;;;10.19;78.08;101705.43;105813;1257;62026;-77
2023/10/17 09:27:15;;;;;;;;;;;;;;;10.23;77.99;101700.88;105664;1258;125847;-77
2023/10/17 09:29:45;;;;;;;;;;;;;;;10.29;77.84;101695.85;105804;1260;64185;-77
2023/10/17 09:32:11;;;;;;;;;;;;;;;10.35;77.76;101697.52;105659;1260;125622;-78
2023/10/17 09:34:40;;;;;;;;;;;;;;;10.42;77.88;101699.90;106230;1260;62140;-77
2023/10/17 09:37:12;;;;;;;;;;;;;;;10.47;77.53;101700.33;106153;1261;124612;-77
2023/10/17 09:39:44;;;;;;;;;;;;;;;10.49;76.66;101702.14;105580;1264;76711;-76
2023/10/17 09:42:11;;;;;;;;;;;;;;;10.52;76.34;101701.73;105589;1260;65972;-78
2023/10/17 09:44:38;;;;;;;;;;;;;;;10.55;76.10;101696.75;105651;1262;125567;-77
2023/10/17 09:47:06;;;;;;;;;;;;;;;10.59;76.06;101696.02;105736;1258;62182;-77
2023/10/17 09:49:37;;;;;;;;;;;;;;;10.62;75.90;101692.81;105710;1260;125514;-78
2023/10/17 09:52:04;;;;;;;;;;;;;;;10.63;75.42;101691.48;105694;1260;75183;-79
2023/10/17 09:54:31;;;;;;;;;;;;;;;10.64;75.26;101690.27;105666;1260;64985;-78
2023/10/17 09:56:58;;;;;;;;;;;;;;;10.67;75.18;101687.23;105689;1260;125804;-78
2023/10/17 09:59:25;;;;;;;;;;;;;;;10.69;74.95;101682.60;105856;1260;62585;-77
2023/10/17 10:01:52;;;;;;;;;;;;;;;10.72;74.63;101687.60;105646;1258;125666;-77
2023/10/17 10:04:18;;;;;;;;;;;;;;;10.74;74.48;101686.11;105647;1264;75333;-78
2023/10/17 10:06:45;;;;;;;;;;;;;;;10.77;74.14;101688.50;105920;1261;67771;-78
2023/10/17 10:09:14;;;;;;;;;;;;;;;10.82;74.00;101685.89;105684;1260;124576;-78
2023/10/17 10:11:50;;;;;;;;;;;;;;;10.83;73.63;101683.46;105930;1259;62117;-78
2023/10/17 10:14:23;;;;;;;;;;;;;;;10.79;73.21;101680.67;105869;1259;124945;-78
2023/10/17 10:16:53;;;;;;;;;;;;;;;10.83;73.31;101676.26;105755;1262;74860;-78
2023/10/17 10:19:23;;;;;;;;;;;;;;;10.93;73.20;101672.63;107689;1262;125840;-78
2023/10/17 10:21:59;;;;;;;;;;;;;;;11.02;73.32;101670.16;105701;1258;73181;-77
2023/10/17 10:24:26;;;;;;;;;;;;;;;11.14;73.41;101660.25;105665;1259;62152;-78
2023/10/17 10:27:24;;;;;;;;;;;;;;;11.31;73.31;101654.88;105517;1264;123944;-79
2023/10/17 10:29:53;;;;;;;;;;;;;;;11.51;72.97;101654.02;105864;1262;74224;-77
2023/10/17 10:32:25;;;;;;;;;;;;;;;11.63;72.51;101652.52;106023;1261;124429;-77
2023/10/17 10:34:52;;;;;;;;;;;;;;;11.66;71.70;101648.22;105817;1260;71390;-77
2023/10/17 10:37:22;;;;;;;;;;;;;;;11.61;71.00;101649.79;105717;1260;124949;-78
2023/10/17 10:40:24;;;;;;;;;;;;;;;11.51;70.53;101648.39;105845;1258;62190;-77
2023/10/17 10:42:52;;;;;;;;;;;;;;;11.42;70.42;101649.14;105273;1266;75488;-77
2023/10/17 10:45:55;;;;;;;;;;;;;;;11.39;70.09;101651.64;105078;1266;125721;-77
2023/10/17 10:48:26;;;;;;;;;;;;;;;11.30;69.80;101650.80;105226;1270;72639;-77
2023/10/17 10:50:55;;;;;;;;;;;;;;;11.21;69.60;101653.11;105320;1265;125335;-77
2023/10/17 10:53:28;;;;;;;;;;;;;;;11.13;69.53;101653.51;105348;1266;62201;-76
2023/10/17 10:55:55;;;;;;;;;;;;;;;11.08;69.53;101651.39;105591;1271;124980;-76
2023/10/17 10:58:23;;;;;;;;;;;;;;;11.10;69.92;101651.13;105410;1265;64916;-76
2023/10/17 11:00:49;;;;;;;;;;;;;;;11.18;69.73;101645.27;105190;1266;71593;-78
2023/10/17 11:03:18;;;;;;;;;;;;;;;11.23;69.74;101648.63;105110;1270;124458;-77
2023/10/17 11:05:54;;;;;;;;;;;;;;;11.24;69.59;101643.91;105196;1265;60508;-77
2023/10/17 11:08:21;;;;;;;;;;;;;;;11.26;69.52;101642.59;105300;1265;124893;-77
2023/10/17 11:10:48;;;;;;;;;;;;;;;11.34;69.44;101637.60;105251;1269;65184;-78
2023/10/17 11:13:17;;;;;;;;;;;;;;;11.44;69.44;101634.09;105242;1265;124873;-77
2023/10/17 11:15:44;;;;;;;;;;;;;;;11.59;69.37;101630.56;105174;1271;62373;-77
2023/10/17 11:18:11;;;;;;;;;;;;;;;11.77;69.28;101622.73;105622;1263;62073;-77
2023/10/17 11:20:40;;;;;;;;;;;;;;;11.94;69.12;101617.53;105730;1259;125013;-77
2023/10/17 11:23:08;;;;;;;;;;;;;;;12.15;69.14;101614.55;105858;1260;67479;-79
2023/10/17 11:25:35;;;;;;;;;;;;;;;12.32;68.87;101616.33;105770;1259;124951;-79
2023/10/17 11:28:06;;;;;;;;;;;;;;;12.41;68.55;101618.01;105717;1260;62520;-77
2023/10/17 11:30:40;;;;;;;;;;;;;;;12.42;68.00;101615.57;105778;1258;62089;-78
2023/10/17 11:33:10;;;;;;;;;;;;;;;12.37;67.51;101613.63;105631;1259;124597;-79
2023/10/17 11:35:37;;;;;;;;;;;;;;;12.26;67.26;101609.60;105876;1259;64900;-76
2023/10/17 11:38:07;;;;;;;;;;;;;;;12.15;66.90;101608.20;105697;1260;124913;-78
2023/10/17 11:40:44;;;;;;;;;;;;;;;12.03;66.73;101608.87;106901;1259;62036;-79
2023/10/17 11:43:15;;;;;;;;;;;;;;;11.94;66.73;101608.73;105751;1262;125245;-79
2023/10/17 11:45:42;;;;;;;;;;;;;;;11.92;66.83;101608.36;105888;1260;74195;-79
2023/10/17 11:48:23;;;;;;;;;;;;;;;11.93;66.66;101607.83;105875;1261;66592;-79
2023/10/17 11:50:50;;;;;;;;;;;;;;;11.94;66.41;101608.59;105702;1261;124937;-79
2023/10/17 11:53:17;;;;;;;;;;;;;;;11.94;66.13;101605.59;105670;1260;62141;-80
2023/10/17 11:55:46;;;;;;;;;;;;;;;11.93;65.90;101605.91;105742;1260;124789;-80
2023/10/17 11:58:32;;;;;;;;;;;;;;;11.94;65.91;101609.64;105911;1259;75512;-79
2023/10/17 12:00:59;;;;;;;;;;;;;;;12.00;65.32;101607.36;105699;1262;125113;-78
2023/10/17 12:03:27;;;;;;;;;;;;;;;12.05;65.15;101606.13;108383;1259;72396;-79
2023/10/17 12:05:54;;;;;;;;;;;;;;;12.10;64.77;101605.41;105880;1260;63337;-78
2023/10/17 12:08:29;;;;;;;;;;;;;;;12.10;64.50;101608.40;105863;1262;124438;-78
2023/10/17 12:10:56;;;;;;;;;;;;;;;12.04;64.17;101605.92;105883;1261;74092;-78
2023/10/17 12:13:23;;;;;;;;;;;;;;;12.05;64.20;101601.56;105787;1262;124713;-80
2023/10/17 12:15:49;;;;;;;;;;;;;;;12.08;64.28;101598.66;105800;1260;71593;-79
2023/10/17 12:18:16;;;;;;;;;;;;;;;12.13;64.39;101600.39;105895;1264;62034;-79
2023/10/17 12:20:43;;;;;;;;;;;;;;;12.16;64.33;101595.41;105621;1263;124480;-80
2023/10/17 12:23:14;;;;;;;;;;;;;;;12.20;64.19;101595.16;105802;1260;75461;-79
2023/10/17 12:25:42;;;;;;;;;;;;;;;12.22;64.00;101594.20;105840;1261;124643;-79
2023/10/17 12:28:08;;;;;;;;;;;;;;;12.22;63.89;101591.72;105733;1259;72641;-80
2023/10/17 12:30:39;;;;;;;;;;;;;;;12.19;63.60;101589.67;105765;1260;60109;-80
2023/10/17 12:33:06;;;;;;;;;;;;;;;12.11;63.21;101590.85;105862;1260;124739;-80
2023/10/17 12:35:33;;;;;;;;;;;;;;;12.02;62.96;101590.56;105750;1258;74707;-80
2023/10/17 12:38:06;;;;;;;;;;;;;;;11.96;63.00;101594.75;105742;1260;124920;-79
2023/10/17 12:40:33;;;;;;;;;;;;;;;11.96;63.05;101592.63;108875;1259;73242;-80
2023/10/17 12:43:01;;;;;;;;;;;;;;;11.96;62.96;101588.08;106536;1260;125096;-78
2023/10/17 12:45:30;;;;;;;;;;;;;;;11.99;62.92;101586.92;105834;1259;62101;-80
2023/10/17 12:47:56;;;;;;;;;;;;;;;12.02;62.79;101585.64;105761;1262;74629;-81
2023/10/17 12:50:23;;;;;;;;;;;;;;;12.08;62.82;101584.23;106196;1259;124445;-80
2023/10/17 12:52:50;;;;;;;;;;;;;;;12.14;62.48;101579.48;106445;1259;72528;-80
2023/10/17 12:55:19;;;;;;;;;;;;;;;12.19;62.49;101578.59;106459;1259;124614;-80
2023/10/17 12:57:46;;;;;;;;;;;;;;;12.25;62.38;101574.55;106290;1258;62076;-80
2023/10/17 13:00:14;;;;;;;;;;;;;;;12.29;62.16;101573.98;105610;1259;75458;-78
2023/10/17 13:02:42;;;;;;;;;;;;;;;12.30;61.86;101570.50;105723;1260;124606;-80
2023/10/17 13:05:09;;;;;;;;;;;;;;;12.30;61.69;101571.90;105786;1260;70148;-80
2023/10/17 13:07:39;;;;;;;;;;;;;;;12.30;61.71;101569.97;105861;1260;124553;-80
2023/10/17 13:10:07;;;;;;;;;;;;;;;12.30;61.56;101569.79;106097;1262;62086;-79
2023/10/17 13:12:34;;;;;;;;;;;;;;;12.28;61.51;101565.34;105741;1260;75472;-80
2023/10/17 13:15:00;;;;;;;;;;;;;;;12.27;61.22;101567.92;105623;1259;124974;-79
2023/10/17 13:17:28;;;;;;;;;;;;;;;12.24;61.19;101566.11;105894;1259;72479;-79
2023/10/17 13:19:57;;;;;;;;;;;;;;;12.25;61.03;101561.73;105627;1262;125152;-80
2023/10/17 13:22:24;;;;;;;;;;;;;;;12.27;60.80;101563.72;105781;1262;63165;-79
2023/10/17 13:24:50;;;;;;;;;;;;;;;12.26;60.45;101555.41;105726;1263;72952;-79
2023/10/17 13:27:17;;;;;;;;;;;;;;;12.24;60.45;101549.20;105721;1259;124355;-79
2023/10/17 13:29:43;;;;;;;;;;;;;;;12.24;60.35;101551.15;105855;1257;72716;-79
2023/10/17 13:32:10;;;;;;;;;;;;;;;12.25;60.49;101553.45;105729;1261;125008;-80
2023/10/17 13:34:37;;;;;;;;;;;;;;;12.24;60.39;101553.76;105718;1259;62492;-80
2023/10/17 13:37:07;;;;;;;;;;;;;;;12.20;60.42;101555.04;105591;1260;125285;-79
2023/10/17 13:39:34;;;;;;;;;;;;;;;12.14;60.38;101556.80;105837;1262;65495;-79
2023/10/17 13:42:02;;;;;;;;;;;;;;;12.13;60.46;101558.52;105796;1260;72775;-80
2023/10/17 13:44:29;;;;;;;;;;;;;;;12.10;59.92;101558.09;106223;1259;124677;-80
2023/10/17 13:46:56;;;;;;;;;;;;;;;12.06;59.91;101554.45;106316;1258;60198;-79
2023/10/17 13:49:23;;;;;;;;;;;;;;;12.05;59.75;101551.77;105713;1259;124743;-80
2023/10/17 13:51:50;;;;;;;;;;;;;;;12.04;59.60;101550.70;105809;1262;68148;-78
2023/10/17 13:54:17;;;;;;;;;;;;;;;12.04;59.61;101546.27;105874;1260;71755;-81
2023/10/17 13:56:43;;;;;;;;;;;;;;;12.01;59.61;101545.31;105888;1262;124876;-78
2023/10/17 13:59:10;;;;;;;;;;;;;;;12.00;59.77;101543.88;105713;1260;62219;-80
2023/10/17 14:01:45;;;;;;;;;;;;;;;11.99;59.77;101542.95;106188;1264;124850;-80
2023/10/17 14:04:11;;;;;;;;;;;;;;;11.97;59.78;101544.82;106390;1259;65175;-80
2023/10/17 14:06:39;;;;;;;;;;;;;;;11.93;59.82;101544.86;106501;1262;72710;-84
2023/10/17 14:09:14;;;;;;;;;;;;;;;11.87;59.92;101541.67;106258;1259;128916;-83
2023/10/17 14:11:46;;;;;;;;;;;;;;;11.82;59.87;101537.80;106554;1258;60168;-83
2023/10/17 14:14:13;;;;;;;;;;;;;;;11.76;59.88;101538.13;106460;1260;124774;-83
2023/10/17 14:16:40;;;;;;;;;;;;;;;11.67;59.97;101531.88;106517;1259;65539;-83
2023/10/17 14:19:18;;;;;;;;;;;;;;;11.60;60.04;101530.05;106455;1259;124758;-83
2023/10/17 14:21:47;;;;;;;;;;;;;;;11.55;60.17;101530.91;106464;1260;61314;-83
2023/10/17 14:24:27;;;;;;;;;;;;;;;11.49;60.18;101530.58;106781;1258;62118;-84
2023/10/17 14:26:53;;;;;;;;;;;;;;;11.45;60.26;101523.42;106554;1259;124600;-85
2023/10/17 14:29:23;;;;;;;;;;;;;;;11.41;60.29;101523.81;106462;1259;64966;-83
2023/10/17 14:31:51;;;;;;;;;;;;;;;11.36;60.36;101523.44;106406;1258;126073;-82
2023/10/17 14:34:17;;;;;;;;;;;;;;;11.31;60.32;101520.82;106533;1259;62184;-81
2023/10/17 14:36:46;;;;;;;;;;;;;;;11.27;60.49;101522.42;106729;1258;62099;-82
2023/10/17 14:39:13;;;;;;;;;;;;;;;11.23;60.63;101517.37;106339;1258;124985;-82
2023/10/17 14:41:40;;;;;;;;;;;;;;;11.19;60.63;101521.11;106285;1262;66064;-83
2023/10/17 14:44:06;;;;;;;;;;;;;;;11.16;60.71;101515.72;106304;1259;124414;-85
2023/10/17 14:46:33;;;;;;;;;;;;;;;11.11;60.71;101515.55;106380;1259;62281;-83
2023/10/17 14:49:01;;;;;;;;;;;;;;;11.05;60.82;101515.52;106108;1261;124711;-82